Time;durP1;ratioP1;P1;durP2;ratioP2;P2;SDS_P1;SDS_P2;PMS_P1;PMS_P2;Temp;Humidity;BMP_temperature;BMP_pressure;BME280_temperature;BME280_humidity;BME280_pressure;Samples;Min_cycle;Max_cycle;Signal;HPM_P1;HPM_P2
2020/12/27 00:00:08;;;;;;;15.23;9.20;;;0.10;99.90;;;;;;5069606;28;20236;-75
2020/12/27 00:02:34;;;;;;;16.13;9.07;;;0.10;99.90;;;;;;5069750;28;20231;-73
2020/12/27 00:05:00;;;;;;;17.00;9.07;;;0.00;99.90;;;;;;5068735;28;20198;-74
2020/12/27 00:07:27;;;;;;;14.90;8.70;;;0.00;99.90;;;;;;5072489;28;20257;-73
2020/12/27 00:09:54;;;;;;;16.37;9.33;;;0.00;99.90;;;;;;5073302;28;20209;-73
2020/12/27 00:12:20;;;;;;;21.07;8.73;;;0.00;99.90;;;;;;5070729;28;20283;-74
2020/12/27 00:14:47;;;;;;;18.63;9.83;;;0.00;99.90;;;;;;5070468;28;20362;-74
2020/12/27 00:17:14;;;;;;;17.63;9.80;;;-0.10;99.90;;;;;;5072516;28;20205;-74
2020/12/27 00:19:43;;;;;;;20.70;9.90;;;0.00;99.90;;;;;;5068057;28;20201;-74
2020/12/27 00:22:10;;;;;;;17.70;8.97;;;0.00;99.90;;;;;;5071040;28;20658;-72
2020/12/27 00:24:37;;;;;;;17.83;9.67;;;0.00;99.90;;;;;;5072029;28;20288;-73
2020/12/27 00:27:04;;;;;;;16.50;9.27;;;0.00;99.90;;;;;;5073087;28;20651;-74
2020/12/27 00:29:31;;;;;;;16.40;9.20;;;0.00;99.90;;;;;;5072106;28;20263;-72
2020/12/27 00:31:58;;;;;;;15.37;9.17;;;0.00;99.90;;;;;;5072082;28;20266;-73
2020/12/27 00:34:25;;;;;;;16.93;9.30;;;0.00;99.90;;;;;;5071762;28;20251;-73
2020/12/27 00:36:56;;;;;;;14.50;8.63;;;0.10;99.90;;;;;;5073378;28;20607;-72
2020/12/27 00:39:22;;;;;;;16.30;9.13;;;-0.10;99.90;;;;;;5074288;28;20207;-72
2020/12/27 00:41:49;;;;;;;14.70;8.50;;;-0.10;99.90;;;;;;5067312;28;20202;-72
2020/12/27 00:44:16;;;;;;;19.23;9.23;;;-0.10;99.90;;;;;;5073171;28;20213;-72
2020/12/27 00:46:42;;;;;;;19.30;9.07;;;-0.10;99.90;;;;;;5070406;28;20260;-74
2020/12/27 00:49:08;;;;;;;13.97;8.73;;;-0.10;99.90;;;;;;5076092;28;20209;-72
2020/12/27 00:51:36;;;;;;;16.33;9.17;;;-0.10;99.90;;;;;;5072024;28;20303;-72
2020/12/27 00:54:02;;;;;;;17.93;8.63;;;-0.10;99.90;;;;;;5071093;28;20679;-73
2020/12/27 00:56:28;;;;;;;15.40;8.60;;;-0.10;99.90;;;;;;5068810;28;20225;-73
2020/12/27 00:58:55;;;;;;;19.70;9.50;;;-0.10;99.90;;;;;;5070771;28;20233;-73
2020/12/27 01:01:21;;;;;;;16.50;8.57;;;-0.10;99.90;;;;;;5075264;28;20281;-73
2020/12/27 01:03:47;;;;;;;15.80;8.60;;;-0.10;99.90;;;;;;5072247;28;20288;-73
2020/12/27 01:06:14;;;;;;;17.70;8.93;;;-0.20;99.90;;;;;;5075429;28;20275;-73
2020/12/27 01:08:41;;;;;;;17.43;8.37;;;-0.20;99.90;;;;;;5076644;28;20210;-72
2020/12/27 01:11:07;;;;;;;18.20;9.53;;;-0.20;99.90;;;;;;5076592;28;20660;-73
2020/12/27 01:13:37;;;;;;;17.97;9.20;;;-0.20;99.90;;;;;;5080726;28;20315;-73
2020/12/27 01:16:03;;;;;;;14.47;8.20;;;-0.20;99.90;;;;;;5075496;28;20225;-72
2020/12/27 01:18:30;;;;;;;16.60;9.37;;;-0.20;99.90;;;;;;5076560;28;20339;-73
2020/12/27 01:20:56;;;;;;;16.07;8.40;;;-0.30;99.90;;;;;;5075199;28;20206;-74
2020/12/27 01:23:22;;;;;;;14.70;8.37;;;-0.30;99.90;;;;;;5073680;28;20304;-73
2020/12/27 01:25:50;;;;;;;15.37;8.07;;;-0.30;99.90;;;;;;5076110;28;20252;-73
2020/12/27 01:28:16;;;;;;;18.37;9.40;;;-0.40;99.90;;;;;;5075993;28;20290;-73
2020/12/27 01:30:44;;;;;;;14.70;7.60;;;-0.40;99.90;;;;;;5071697;28;20216;-73
2020/12/27 01:33:10;;;;;;;14.63;7.90;;;-0.40;99.90;;;;;;5077350;28;20220;-73
2020/12/27 01:35:37;;;;;;;16.57;8.70;;;-0.40;99.90;;;;;;5074133;28;20229;-73
2020/12/27 01:38:04;;;;;;;14.07;8.50;;;-0.40;99.90;;;;;;5070642;28;20221;-73
2020/12/27 01:40:30;;;;;;;13.27;8.53;;;-0.40;99.90;;;;;;5070373;28;20209;-73
2020/12/27 01:42:58;;;;;;;13.23;8.13;;;-0.50;99.90;;;;;;5073242;28;20245;-71
2020/12/27 01:45:26;;;;;;;14.77;7.83;;;-0.40;99.90;;;;;;5072457;28;20204;-72
2020/12/27 01:47:53;;;;;;;15.40;7.97;;;-0.40;99.90;;;;;;5071320;28;20296;-72
2020/12/27 01:50:21;;;;;;;17.27;8.20;;;-0.50;99.90;;;;;;5073522;28;20747;-71
2020/12/27 01:52:48;;;;;;;14.57;7.67;;;-0.50;99.90;;;;;;5070235;28;20217;-72
2020/12/27 01:55:16;;;;;;;19.30;7.93;;;-0.40;99.90;;;;;;5076938;28;20224;-73
2020/12/27 01:58:15;;;;;;;14.33;7.37;;;-0.40;99.90;;;;;;5070016;28;20201;-73
2020/12/27 02:00:42;;;;;;;16.37;8.17;;;-0.50;99.90;;;;;;5074716;28;20200;-73
2020/12/27 02:03:10;;;;;;;13.17;7.53;;;-0.40;99.90;;;;;;5071084;28;20259;-74
2020/12/27 02:05:36;;;;;;;15.93;7.90;;;-0.50;99.90;;;;;;5075289;28;20629;-73
2020/12/27 02:08:03;;;;;;;16.13;8.57;;;-0.50;99.90;;;;;;5074656;28;21445;-75
2020/12/27 02:10:31;;;;;;;13.50;7.33;;;-0.50;99.90;;;;;;5074783;28;20274;-73
2020/12/27 02:12:57;;;;;;;12.40;7.03;;;-0.50;99.90;;;;;;5073703;28;20229;-74
2020/12/27 02:15:24;;;;;;;13.57;7.27;;;-0.60;99.90;;;;;;5071924;28;20233;-74
2020/12/27 02:17:51;;;;;;;15.90;8.27;;;-0.60;99.90;;;;;;5071448;28;20212;-74
2020/12/27 02:20:17;;;;;;;16.53;8.53;;;-0.60;99.90;;;;;;5078178;28;20250;-75
2020/12/27 02:22:44;;;;;;;16.57;8.90;;;-0.60;99.90;;;;;;5070490;28;20221;-74
2020/12/27 02:25:11;;;;;;;19.23;8.07;;;-0.60;99.90;;;;;;5075610;28;20535;-75
2020/12/27 02:27:38;;;;;;;17.67;9.00;;;-0.60;99.90;;;;;;5072725;28;20202;-75
2020/12/27 02:30:05;;;;;;;16.87;7.53;;;-0.60;99.90;;;;;;5072559;28;20273;-74
2020/12/27 02:32:32;;;;;;;15.43;8.20;;;-0.60;99.90;;;;;;5074773;28;20284;-74
2020/12/27 02:34:58;;;;;;;15.83;9.20;;;-0.60;99.90;;;;;;5065724;28;20249;-74
2020/12/27 02:37:25;;;;;;;16.40;8.73;;;-0.70;99.90;;;;;;5071436;28;20293;-74
2020/12/27 02:39:51;;;;;;;16.83;9.00;;;-0.70;99.90;;;;;;5074973;28;20296;-74
2020/12/27 02:42:18;;;;;;;18.97;8.73;;;-0.70;99.90;;;;;;5075513;28;20212;-74
2020/12/27 02:45:09;;;;;;;18.90;9.63;;;-0.80;99.90;;;;;;5074653;28;20737;-75
2020/12/27 02:47:36;;;;;;;16.43;8.43;;;-0.80;99.90;;;;;;5072130;28;20205;-74
2020/12/27 02:50:05;;;;;;;14.80;8.17;;;-0.90;99.90;;;;;;5073249;28;20292;-75
2020/12/27 02:52:31;;;;;;;15.63;8.87;;;-0.90;99.90;;;;;;5073342;28;20296;-75
2020/12/27 02:54:57;;;;;;;16.43;8.63;;;-0.90;99.90;;;;;;5073346;28;20213;-73
2020/12/27 02:57:25;;;;;;;17.67;8.77;;;-0.90;99.90;;;;;;5072012;28;20301;-73
2020/12/27 02:59:51;;;;;;;15.27;8.87;;;-0.90;99.90;;;;;;5071739;28;20334;-73
2020/12/27 03:02:18;;;;;;;19.30;8.37;;;-0.90;99.90;;;;;;5070823;28;20218;-73
2020/12/27 03:04:44;;;;;;;21.77;9.23;;;-0.90;99.90;;;;;;5073628;28;20193;-73
2020/12/27 03:07:10;;;;;;;18.40;9.13;;;-1.00;99.90;;;;;;5074333;28;20248;-73
2020/12/27 03:09:37;;;;;;;14.90;8.33;;;-0.90;99.90;;;;;;5070013;28;20247;-74
2020/12/27 03:12:03;;;;;;;18.40;8.53;;;-1.00;99.90;;;;;;5073858;28;20225;-73
2020/12/27 03:14:31;;;;;;;16.07;8.47;;;-1.00;99.90;;;;;;5071380;28;20304;-74
2020/12/27 03:16:57;;;;;;;19.43;8.47;;;-1.00;99.90;;;;;;5072232;28;20254;-74
2020/12/27 03:19:24;;;;;;;16.50;8.40;;;-1.00;99.90;;;;;;5072839;28;20612;-74
2020/12/27 03:21:50;;;;;;;18.70;8.73;;;-1.00;99.90;;;;;;5069916;28;20658;-74
2020/12/27 03:24:16;;;;;;;16.63;7.83;;;-1.00;99.90;;;;;;5072498;28;21067;-74
2020/12/27 03:26:43;;;;;;;11.43;7.23;;;-1.00;99.90;;;;;;5069692;28;20304;-73
2020/12/27 03:29:09;;;;;;;14.50;7.53;;;-1.00;99.90;;;;;;5074094;28;20266;-74
2020/12/27 03:31:36;;;;;;;16.93;8.10;;;-0.90;99.90;;;;;;5072917;28;20711;-74
2020/12/27 03:34:03;;;;;;;16.20;7.77;;;-1.00;99.90;;;;;;5069380;28;20743;-75
2020/12/27 03:36:29;;;;;;;16.13;8.10;;;-0.90;99.90;;;;;;5072827;28;20207;-73
2020/12/27 03:38:56;;;;;;;18.80;8.43;;;-0.90;99.90;;;;;;5065035;28;20201;-74
2020/12/27 03:41:22;;;;;;;13.30;7.13;;;-1.00;99.90;;;;;;5073075;28;20323;-74
2020/12/27 03:43:48;;;;;;;15.63;8.17;;;-1.00;99.90;;;;;;5066216;28;20292;-74
2020/12/27 03:46:15;;;;;;;12.63;7.80;;;-1.00;99.90;;;;;;5071404;28;20240;-73
2020/12/27 03:48:42;;;;;;;16.20;7.90;;;-1.00;99.90;;;;;;5071428;28;20689;-73
2020/12/27 03:51:08;;;;;;;13.70;7.70;;;-1.00;99.90;;;;;;5073998;28;20577;-74
2020/12/27 03:53:35;;;;;;;17.30;7.80;;;-1.00;99.90;;;;;;5071989;28;20240;-73
2020/12/27 03:56:03;;;;;;;12.00;6.83;;;-1.00;99.90;;;;;;5071006;28;20698;-74
2020/12/27 03:58:29;;;;;;;17.37;7.93;;;-1.00;99.90;;;;;;5068873;28;20214;-73
2020/12/27 04:00:55;;;;;;;16.70;7.57;;;-1.00;99.90;;;;;;5072806;28;20201;-74
2020/12/27 04:03:22;;;;;;;13.13;7.90;;;-1.00;99.90;;;;;;5072473;28;20646;-74
2020/12/27 04:05:49;;;;;;;14.17;7.70;;;-1.00;99.90;;;;;;5069540;28;20648;-74
2020/12/27 04:08:16;;;;;;;13.10;7.33;;;-1.00;99.90;;;;;;5071030;28;20209;-74
2020/12/27 04:10:42;;;;;;;15.70;7.40;;;-1.00;99.90;;;;;;5067518;28;20622;-73
2020/12/27 04:13:08;;;;;;;16.17;7.80;;;-1.00;99.90;;;;;;5071009;28;20217;-74
2020/12/27 04:15:35;;;;;;;15.53;7.70;;;-1.10;99.90;;;;;;5070058;28;20223;-74
2020/12/27 04:18:01;;;;;;;19.57;8.57;;;-1.10;99.90;;;;;;5068539;28;20209;-73
2020/12/27 04:20:28;;;;;;;15.77;7.97;;;-1.10;99.90;;;;;;5069097;28;20201;-73
2020/12/27 04:22:55;;;;;;;16.27;8.17;;;-1.10;99.90;;;;;;5070876;28;20209;-74
2020/12/27 04:25:21;;;;;;;13.00;7.07;;;-1.20;99.90;;;;;;5073460;28;20255;-73
2020/12/27 04:27:47;;;;;;;13.80;7.70;;;-1.20;99.90;;;;;;5071010;28;20205;-74
2020/12/27 04:30:14;;;;;;;19.57;8.03;;;-1.20;99.90;;;;;;5070758;28;20209;-74
2020/12/27 04:32:40;;;;;;;15.77;7.90;;;-1.20;99.90;;;;;;5072368;28;20339;-74
2020/12/27 04:35:07;;;;;;;16.03;8.23;;;-1.20;99.90;;;;;;5072190;28;20774;-74
2020/12/27 04:37:33;;;;;;;16.47;8.37;;;-1.20;99.90;;;;;;5077735;28;20209;-74
2020/12/27 04:40:00;;;;;;;18.87;8.40;;;-1.20;99.90;;;;;;5075862;28;20203;-74
2020/12/27 04:42:27;;;;;;;17.40;7.90;;;-1.20;99.90;;;;;;5074948;28;20314;-74
2020/12/27 04:44:55;;;;;;;19.00;8.03;;;-1.20;99.90;;;;;;5074624;28;20292;-74
2020/12/27 04:47:24;;;;;;;19.53;8.57;;;-1.30;99.90;;;;;;5076339;28;20571;-73
2020/12/27 04:49:51;;;;;;;14.90;7.23;;;-1.20;99.90;;;;;;5077478;28;20208;-73
2020/12/27 04:52:21;;;;;;;14.00;8.23;;;-1.20;99.90;;;;;;5075968;28;20227;-74
2020/12/27 04:54:49;;;;;;;16.60;8.43;;;-1.20;99.90;;;;;;5074222;28;20230;-74
2020/12/27 04:57:18;;;;;;;15.77;8.27;;;-1.20;99.90;;;;;;5076189;28;20650;-73
2020/12/27 04:59:47;;;;;;;16.57;8.30;;;-1.20;99.90;;;;;;5073542;28;20236;-74
2020/12/27 05:02:16;;;;;;;13.30;8.23;;;-1.30;99.90;;;;;;5076136;28;20304;-75
2020/12/27 05:04:45;;;;;;;15.67;8.73;;;-1.30;99.90;;;;;;5076204;28;20232;-74
2020/12/27 05:07:16;;;;;;;15.13;8.47;;;-1.30;99.90;;;;;;5076090;28;20240;-74
2020/12/27 05:09:43;;;;;;;18.83;9.23;;;-1.30;99.90;;;;;;5073188;28;20224;-75
2020/12/27 05:12:10;;;;;;;18.10;10.03;;;-1.30;99.90;;;;;;5073809;28;20220;-75
2020/12/27 05:14:38;;;;;;;21.57;9.37;;;-1.30;99.90;;;;;;5072013;28;20263;-74
2020/12/27 05:17:04;;;;;;;16.57;8.53;;;-1.30;99.90;;;;;;5070127;28;20212;-75
2020/12/27 05:19:32;;;;;;;18.53;9.43;;;-1.30;99.90;;;;;;5074005;28;20220;-76
2020/12/27 05:22:07;;;;;;;18.10;9.33;;;-1.30;99.90;;;;;;5072440;28;20280;-74
2020/12/27 05:24:34;;;;;;;20.53;9.70;;;-1.30;99.90;;;;;;5072847;28;20193;-74
2020/12/27 05:27:00;;;;;;;17.40;9.17;;;-1.30;99.90;;;;;;5070524;28;20256;-75
2020/12/27 05:29:32;;;;;;;20.77;8.93;;;-1.30;99.90;;;;;;5070761;28;20300;-74
2020/12/27 05:32:00;;;;;;;15.90;8.70;;;-1.30;99.90;;;;;;5076329;28;20201;-75
2020/12/27 05:34:27;;;;;;;18.87;9.13;;;-1.30;99.90;;;;;;5073051;28;20228;-74
2020/12/27 05:36:57;;;;;;;17.37;9.53;;;-1.40;99.90;;;;;;5073360;28;20220;-74
2020/12/27 05:39:24;;;;;;;16.50;9.00;;;-1.30;99.90;;;;;;5068203;28;20697;-73
2020/12/27 05:41:51;;;;;;;17.83;9.57;;;-1.30;99.90;;;;;;5074490;28;20216;-73
2020/12/27 05:44:20;;;;;;;16.23;9.27;;;-1.40;99.90;;;;;;5073772;28;20288;-74
2020/12/27 05:46:47;;;;;;;19.93;10.03;;;-1.40;99.90;;;;;;5072484;28;20221;-74
2020/12/27 05:49:15;;;;;;;22.27;9.63;;;-1.40;99.90;;;;;;5069309;28;20209;-73
2020/12/27 05:51:51;;;;;;;18.67;9.90;;;-1.40;99.90;;;;;;5075063;28;20306;-74
2020/12/27 05:54:29;;;;;;;21.23;10.17;;;-1.30;99.90;;;;;;5075271;28;20213;-73
2020/12/27 05:56:57;;;;;;;20.03;9.87;;;-1.30;99.90;;;;;;5072025;28;20211;-74
2020/12/27 05:59:28;;;;;;;23.10;10.30;;;-1.30;99.90;;;;;;5073567;28;20277;-73
2020/12/27 06:01:55;;;;;;;22.13;9.93;;;-1.30;99.90;;;;;;5069445;28;20197;-73
2020/12/27 06:05:06;;;;;;;17.77;9.97;;;-1.30;99.90;;;;;;5069931;28;20217;-74
2020/12/27 06:07:34;;;;;;;18.03;9.67;;;-1.30;99.90;;;;;;5072291;28;20260;-73
2020/12/27 06:10:17;;;;;;;22.20;10.60;;;-1.30;99.90;;;;;;5073607;28;20209;-73
2020/12/27 06:13:21;;;;;;;21.27;10.53;;;-1.30;99.90;;;;;;5068827;28;20260;-74
2020/12/27 06:15:54;;;;;;;18.80;9.53;;;-1.30;99.90;;;;;;5072578;28;20220;-74
2020/12/27 06:18:25;;;;;;;23.63;10.07;;;-1.30;99.90;;;;;;5072713;28;20204;-74
2020/12/27 06:21:06;;;;;;;17.20;10.03;;;-1.30;99.90;;;;;;5072257;28;20224;-74
2020/12/27 06:23:33;;;;;;;17.60;9.27;;;-1.30;99.90;;;;;;5073095;28;20209;-75
2020/12/27 06:26:01;;;;;;;20.20;10.90;;;-1.30;99.90;;;;;;5073443;28;20255;-74
2020/12/27 06:28:29;;;;;;;21.17;9.60;;;-1.30;99.90;;;;;;5073997;28;20895;-73
2020/12/27 06:30:58;;;;;;;17.60;9.83;;;-1.30;99.90;;;;;;5073066;28;20209;-75
2020/12/27 06:33:27;;;;;;;20.27;10.57;;;-1.30;99.90;;;;;;5068857;28;20241;-73
2020/12/27 06:35:55;;;;;;;18.97;9.60;;;-1.30;99.90;;;;;;5073544;28;20749;-74
2020/12/27 06:38:22;;;;;;;18.07;10.53;;;-1.30;99.90;;;;;;5071455;28;20214;-73
2020/12/27 06:40:58;;;;;;;18.13;10.03;;;-1.20;99.90;;;;;;5071880;28;20304;-72
2020/12/27 06:43:25;;;;;;;19.17;10.70;;;-1.30;99.90;;;;;;5072005;28;20675;-71
2020/12/27 06:45:52;;;;;;;20.10;10.73;;;-1.30;99.90;;;;;;5067549;28;20665;-72
2020/12/27 06:48:32;;;;;;;20.20;10.47;;;-1.20;99.90;;;;;;5074243;28;20579;-73
2020/12/27 06:51:00;;;;;;;17.73;9.63;;;-1.20;99.90;;;;;;5072261;28;20207;-73
2020/12/27 06:53:42;;;;;;;19.03;10.53;;;-1.20;99.90;;;;;;5072002;28;20227;-72
2020/12/27 06:56:11;;;;;;;20.23;10.47;;;-1.20;99.90;;;;;;5066538;28;20197;-72
2020/12/27 06:58:38;;;;;;;21.43;10.23;;;-1.20;99.90;;;;;;5071175;28;20270;-73
2020/12/27 07:01:16;;;;;;;18.70;10.40;;;-1.20;99.90;;;;;;5074100;28;20207;-73
2020/12/27 07:03:43;;;;;;;23.77;11.03;;;-1.20;99.90;;;;;;5072309;28;20193;-72
2020/12/27 07:06:24;;;;;;;21.33;10.67;;;-1.20;99.90;;;;;;5071307;28;20346;-74
2020/12/27 07:08:55;;;;;;;20.90;9.93;;;-1.20;99.90;;;;;;5073729;28;20288;-72
2020/12/27 07:11:23;;;;;;;21.60;10.50;;;-1.10;99.90;;;;;;5074543;28;20307;-72
2020/12/27 07:13:54;;;;;;;21.23;10.93;;;-1.10;99.90;;;;;;5068855;28;20229;-73
2020/12/27 07:16:24;;;;;;;20.90;11.00;;;-1.10;99.90;;;;;;5072401;28;20288;-72
2020/12/27 07:18:51;;;;;;;20.43;10.43;;;-1.10;99.90;;;;;;5069879;28;20984;-72
2020/12/27 07:21:21;;;;;;;18.10;11.50;;;-1.20;99.90;;;;;;5074149;28;20277;-73
2020/12/27 07:24:09;;;;;;;20.07;10.93;;;-1.10;99.90;;;;;;5070950;28;20296;-73
2020/12/27 07:26:38;;;;;;;17.67;10.07;;;-1.10;99.90;;;;;;5067412;28;20663;-72
2020/12/27 07:29:08;;;;;;;19.33;10.53;;;-1.10;99.90;;;;;;5071624;28;21279;-72
2020/12/27 07:31:35;;;;;;;17.57;10.00;;;-1.10;99.90;;;;;;5071580;28;20300;-72
2020/12/27 07:34:02;;;;;;;17.13;9.73;;;-1.00;99.90;;;;;;5073552;28;20235;-73
2020/12/27 07:36:29;;;;;;;15.73;9.77;;;-1.00;99.90;;;;;;5073299;28;20664;-73
2020/12/27 07:39:00;;;;;;;17.43;9.57;;;-0.90;99.90;;;;;;5072278;28;20288;-72
2020/12/27 07:41:28;;;;;;;18.77;9.13;;;-0.80;99.90;;;;;;5068057;28;20203;-72
2020/12/27 07:43:56;;;;;;;14.80;9.87;;;-0.80;99.90;;;;;;5072888;28;20610;-72
2020/12/27 07:46:24;;;;;;;17.07;10.03;;;-0.70;99.90;;;;;;5073949;28;20213;-73
2020/12/27 07:48:50;;;;;;;20.80;10.53;;;-0.50;99.90;;;;;;5070946;28;20294;-73
2020/12/27 07:51:18;;;;;;;16.87;9.97;;;-0.40;99.90;;;;;;5062537;28;20301;-73
2020/12/27 07:53:47;;;;;;;15.93;9.03;;;-0.30;99.90;;;;;;5070988;28;20208;-73
2020/12/27 07:56:18;;;;;;;15.67;9.37;;;-0.30;99.90;;;;;;5072971;28;20300;-73
2020/12/27 07:58:51;;;;;;;21.07;10.27;;;-0.10;99.90;;;;;;5073066;28;20216;-73
2020/12/27 08:01:23;;;;;;;18.60;9.30;;;0.10;99.90;;;;;;5066369;28;20240;-72
2020/12/27 08:04:00;;;;;;;16.93;10.10;;;0.30;99.90;;;;;;5064105;28;20211;-72
2020/12/27 08:06:28;;;;;;;17.33;9.67;;;0.40;99.90;;;;;;5071894;28;20735;-73
2020/12/27 08:09:02;;;;;;;14.77;10.10;;;0.60;99.90;;;;;;5071875;28;20225;-73
2020/12/27 08:11:29;;;;;;;18.83;9.50;;;0.80;99.90;;;;;;5068274;28;20399;-74
2020/12/27 08:13:58;;;;;;;18.93;9.67;;;0.80;99.90;;;;;;5071761;28;20212;-72
2020/12/27 08:16:25;;;;;;;17.00;9.77;;;0.90;99.90;;;;;;5071696;28;20658;-73
2020/12/27 08:19:02;;;;;;;18.57;9.43;;;1.00;99.90;;;;;;5069011;28;20202;-73
2020/12/27 08:21:29;;;;;;;16.80;9.07;;;1.10;99.90;;;;;;5072633;28;20216;-73
2020/12/27 08:24:01;;;;;;;16.97;8.97;;;1.20;99.90;;;;;;5072165;28;20284;-73
2020/12/27 08:26:29;;;;;;;18.17;8.80;;;1.30;99.90;;;;;;5067976;28;20213;-73
2020/12/27 08:29:12;;;;;;;18.43;9.50;;;1.40;99.90;;;;;;5074541;28;20297;-75
2020/12/27 08:31:39;;;;;;;14.90;8.97;;;1.60;99.90;;;;;;5071961;28;20205;-73
2020/12/27 08:34:10;;;;;;;16.97;8.83;;;1.70;99.90;;;;;;5068395;28;20256;-72
2020/12/27 08:36:38;;;;;;;15.57;9.23;;;1.90;99.90;;;;;;5073014;28;20201;-74
2020/12/27 08:39:14;;;;;;;19.53;9.20;;;2.10;99.90;;;;;;5074167;28;20216;-72
2020/12/27 08:41:46;;;;;;;17.10;9.63;;;2.30;99.90;;;;;;5071411;28;20201;-72
2020/12/27 08:44:44;;;;;;;15.90;8.87;;;2.60;99.90;;;;;;5069499;28;20316;-73
2020/12/27 08:47:32;;;;;;;17.97;9.83;;;3.80;99.90;;;;;;5071680;28;20288;-72
2020/12/27 08:50:04;;;;;;;16.47;9.67;;;5.30;99.90;;;;;;5072559;28;20201;-72
2020/12/27 08:52:32;;;;;;;17.27;10.10;;;7.20;98.30;;;;;;5072114;28;20295;-72
2020/12/27 08:55:01;;;;;;;17.30;9.47;;;8.70;91.00;;;;;;5070719;28;20227;-73
2020/12/27 08:57:28;;;;;;;18.10;9.83;;;10.00;72.60;;;;;;5072670;28;20743;-73
2020/12/27 09:00:07;;;;;;;16.67;10.67;;;10.80;65.10;;;;;;5071147;28;20614;-74
2020/12/27 09:02:33;;;;;;;18.07;10.17;;;11.50;60.10;;;;;;5072951;28;20205;-73
2020/12/27 09:05:10;;;;;;;18.00;10.63;;;12.30;56.00;;;;;;5074545;28;20626;-74
2020/12/27 09:07:39;;;;;;;17.27;10.90;;;13.20;53.90;;;;;;5083368;28;20279;-73
2020/12/27 09:10:11;;;;;;;20.70;11.63;;;14.10;50.80;;;;;;5074558;28;20288;-79
2020/12/27 09:12:39;;;;;;;18.33;11.43;;;14.60;47.30;;;;;;5072230;28;20237;-76
2020/12/27 09:15:21;;;;;;;19.20;11.40;;;15.00;46.30;;;;;;5068891;28;20312;-74
2020/12/27 09:17:54;;;;;;;19.60;11.60;;;15.10;44.90;;;;;;5066130;28;20223;-73
2020/12/27 09:20:21;;;;;;;20.37;11.93;;;15.10;44.60;;;;;;5059339;28;20246;-75
2020/12/27 09:22:48;;;;;;;19.40;11.77;;;15.00;44.10;;;;;;5076102;28;20209;-76
2020/12/27 09:25:18;;;;;;;16.07;10.87;;;15.10;43.60;;;;;;5080569;28;20205;-74
2020/12/27 09:27:44;;;;;;;17.77;11.60;;;15.00;43.10;;;;;;5074282;28;20205;-72
2020/12/27 09:30:14;;;;;;;18.53;11.87;;;15.10;43.40;;;;;;5076111;28;20208;-74
2020/12/27 09:32:41;;;;;;;16.60;11.70;;;15.20;42.30;;;;;;5075244;28;20197;-74
2020/12/27 09:35:07;;;;;;;18.23;12.10;;;15.20;42.50;;;;;;5073507;28;20235;-76
2020/12/27 09:37:34;;;;;;;18.70;11.23;;;15.50;42.00;;;;;;5074943;28;20260;-74
2020/12/27 09:40:03;;;;;;;18.17;12.97;;;15.80;41.70;;;;;;5074353;28;20288;-74
2020/12/27 09:42:33;;;;;;;19.43;11.80;;;16.20;41.00;;;;;;5075580;28;20205;-75
2020/12/27 09:45:16;;;;;;;17.17;11.47;;;16.80;40.40;;;;;;5074193;28;20565;-74
2020/12/27 09:47:50;;;;;;;17.70;11.43;;;17.40;39.50;;;;;;5073613;28;20288;-74
2020/12/27 09:50:17;;;;;;;18.27;12.43;;;18.00;38.70;;;;;;5077149;28;20574;-76
2020/12/27 09:52:44;;;;;;;19.33;12.87;;;18.20;37.30;;;;;;5074859;28;20682;-73
2020/12/27 09:55:11;;;;;;;19.90;12.10;;;18.20;37.20;;;;;;5076445;28;20221;-75
2020/12/27 09:57:40;;;;;;;17.63;11.07;;;18.30;37.20;;;;;;5070586;28;20296;-76
2020/12/27 10:00:08;;;;;;;18.57;11.90;;;18.50;37.00;;;;;;5076769;28;20551;-76
2020/12/27 10:02:34;;;;;;;17.83;12.07;;;18.80;36.40;;;;;;5074009;28;20215;-75
2020/12/27 10:05:01;;;;;;;19.37;12.57;;;18.30;34.40;;;;;;5067503;28;20201;-76
2020/12/27 10:07:28;;;;;;;16.47;12.10;;;17.10;34.50;;;;;;5070228;28;20242;-75
2020/12/27 10:09:54;;;;;;;17.67;12.07;;;15.80;35.70;;;;;;5074958;28;20215;-75
2020/12/27 10:12:21;;;;;;;16.30;11.13;;;14.50;37.30;;;;;;5075152;28;20697;-78
2020/12/27 10:14:49;;;;;;;16.40;11.63;;;13.50;40.90;;;;;;5072953;28;20224;-78
2020/12/27 10:17:15;;;;;;;18.47;11.80;;;13.50;41.90;;;;;;5073646;28;20214;-78
2020/12/27 10:19:42;;;;;;;17.17;10.93;;;14.00;42.20;;;;;;5075568;28;20255;-77
2020/12/27 10:22:11;;;;;;;17.63;11.20;;;14.60;41.30;;;;;;5072193;28;20208;-78
2020/12/27 10:24:37;;;;;;;16.77;11.80;;;15.50;40.40;;;;;;5077463;28;20258;-77
2020/12/27 10:27:05;;;;;;;18.77;11.93;;;16.10;38.60;;;;;;5077679;28;20205;-78
2020/12/27 10:29:32;;;;;;;18.70;12.03;;;16.30;38.70;;;;;;5075870;28;20240;-78
2020/12/27 10:32:01;;;;;;;17.20;11.23;;;16.90;38.50;;;;;;5077379;28;20244;-78
2020/12/27 10:34:28;;;;;;;17.33;12.00;;;17.40;37.40;;;;;;5076118;28;20221;-77
2020/12/27 10:36:55;;;;;;;17.13;11.77;;;18.10;36.80;;;;;;5075785;28;20244;-78
2020/12/27 10:39:23;;;;;;;17.97;11.50;;;18.60;35.70;;;;;;5078228;28;20734;-78
2020/12/27 10:41:50;;;;;;;18.63;10.90;;;19.10;36.00;;;;;;5075687;28;20295;-77
2020/12/27 10:44:17;;;;;;;16.23;11.13;;;19.40;33.80;;;;;;5073593;28;20227;-77
2020/12/27 10:46:45;;;;;;;16.20;11.30;;;19.30;34.00;;;;;;5075270;28;20304;-77
2020/12/27 10:49:13;;;;;;;15.75;10.88;;;19.40;35.00;;;;;;5077037;28;20604;-76
2020/12/27 10:51:40;;;;;;;18.43;11.33;;;19.70;33.60;;;;;;5076978;28;20240;-77
2020/12/27 10:54:11;;;;;;;16.42;11.35;;;19.50;32.70;;;;;;5068480;28;20244;-78
2020/12/27 10:56:39;;;;;;;17.17;11.03;;;19.20;33.30;;;;;;5073498;28;20216;-78
2020/12/27 10:59:05;;;;;;;16.63;11.13;;;18.80;32.80;;;;;;5078170;28;20209;-79
2020/12/27 11:01:32;;;;;;;16.33;11.23;;;18.30;34.10;;;;;;5073781;28;20204;-77
2020/12/27 11:04:00;;;;;;;15.10;10.07;;;18.30;34.40;;;;;;5076044;28;20240;-77
2020/12/27 11:06:31;;;;;;;18.63;11.33;;;18.20;34.20;;;;;;5078973;28;20701;-77
2020/12/27 11:08:58;;;;;;;17.13;11.27;;;18.30;34.40;;;;;;5081465;28;20212;-76
2020/12/27 11:11:25;;;;;;;16.97;11.93;;;18.30;34.60;;;;;;5074260;28;20221;-77
2020/12/27 11:13:51;;;;;;;18.33;11.70;;;18.60;34.50;;;;;;5078834;28;20662;-76
2020/12/27 11:16:18;;;;;;;21.30;11.00;;;18.60;33.60;;;;;;5076476;28;20347;-76
2020/12/27 11:18:45;;;;;;;15.83;11.00;;;18.40;34.00;;;;;;5075592;28;20210;-75
2020/12/27 11:21:12;;;;;;;17.00;10.50;;;18.30;34.10;;;;;;5075760;28;20204;-74
2020/12/27 11:23:39;;;;;;;17.30;10.83;;;18.40;33.80;;;;;;5071631;28;20300;-74
2020/12/27 11:26:05;;;;;;;16.17;10.90;;;18.80;34.20;;;;;;5071043;28;20301;-74
2020/12/27 11:28:32;;;;;;;15.80;11.10;;;19.20;33.90;;;;;;5071508;28;20300;-75
2020/12/27 11:30:58;;;;;;;15.93;10.10;;;19.70;33.30;;;;;;5073850;28;20666;-73
2020/12/27 11:33:24;;;;;;;14.73;9.83;;;19.90;32.30;;;;;;5074796;28;20209;-75
2020/12/27 11:35:51;;;;;;;16.43;10.37;;;20.00;32.00;;;;;;5073256;28;20308;-74
2020/12/27 11:38:18;;;;;;;12.93;9.80;;;19.90;32.20;;;;;;5072924;28;20292;-73
2020/12/27 11:40:45;;;;;;;15.43;10.40;;;19.40;30.90;;;;;;5063298;28;20202;-75
2020/12/27 11:43:12;;;;;;;15.43;9.30;;;18.10;31.20;;;;;;5073362;28;20297;-76
2020/12/27 11:45:38;;;;;;;16.17;9.43;;;16.60;32.50;;;;;;5069991;28;20205;-76
2020/12/27 11:48:05;;;;;;;15.97;10.03;;;14.90;34.10;;;;;;5064832;28;20213;-76
2020/12/27 11:50:31;;;;;;;15.00;9.07;;;13.50;36.00;;;;;;5072430;28;20202;-75
2020/12/27 11:52:57;;;;;;;17.77;8.77;;;12.00;37.50;;;;;;5072182;28;20209;-74
2020/12/27 11:55:24;;;;;;;14.73;8.87;;;10.80;39.50;;;;;;5085111;28;20224;-77
2020/12/27 11:57:52;;;;;;;16.10;8.37;;;9.70;41.80;;;;;;5074243;28;20212;-75
2020/12/27 12:00:19;;;;;;;12.03;7.80;;;8.80;43.70;;;;;;5076002;28;20612;-73
2020/12/27 12:02:47;;;;;;;14.63;7.90;;;8.10;45.30;;;;;;5071998;28;20201;-74
2020/12/27 12:05:14;;;;;;;13.17;8.10;;;7.60;46.30;;;;;;5055458;28;20759;-76
2020/12/27 12:07:41;;;;;;;13.43;7.83;;;7.10;47.40;;;;;;5064512;28;20316;-75
2020/12/27 12:10:08;;;;;;;13.50;8.20;;;6.80;48.20;;;;;;5059548;28;20288;-74
2020/12/27 12:12:34;;;;;;;14.37;7.80;;;6.50;48.90;;;;;;5057944;28;20244;-75
2020/12/27 12:15:01;;;;;;;14.17;7.97;;;6.10;49.60;;;;;;5069805;28;20228;-77
2020/12/27 12:17:28;;;;;;;12.77;7.60;;;5.90;50.40;;;;;;5071520;28;20681;-76
2020/12/27 12:19:54;;;;;;;12.03;7.30;;;5.70;50.90;;;;;;5071137;28;20606;-75
2020/12/27 12:22:20;;;;;;;13.57;7.70;;;5.40;51.60;;;;;;5064539;28;20283;-76
2020/12/27 12:24:47;;;;;;;13.47;7.93;;;5.10;52.20;;;;;;5052931;28;20224;-74
2020/12/27 12:27:13;;;;;;;12.47;7.13;;;4.90;53.20;;;;;;5058030;28;20232;-73
2020/12/27 12:29:40;;;;;;;14.77;7.83;;;4.60;54.10;;;;;;5068804;28;20697;-72
2020/12/27 12:32:07;;;;;;;15.93;7.50;;;4.40;54.80;;;;;;5056575;28;20225;-73
2020/12/27 12:34:34;;;;;;;13.73;7.70;;;4.30;55.40;;;;;;5062253;28;20316;-74
2020/12/27 12:37:00;;;;;;;12.40;7.17;;;4.10;55.80;;;;;;5070794;28;20212;-73
2020/12/27 12:39:27;;;;;;;11.03;6.93;;;4.00;56.50;;;;;;5065507;28;20300;-73
2020/12/27 12:41:56;;;;;;;13.17;7.03;;;3.90;57.50;;;;;;5063874;28;20312;-73